Time;durP1;ratioP1;P1;durP2;ratioP2;P2;SDS_P1;SDS_P2;PMS_P1;PMS_P2;Temp;Humidity;BMP_temperature;BMP_pressure;BME280_temperature;BME280_humidity;BME280_pressure;Samples;Min_cycle;Max_cycle;Signal;HPM_P1;HPM_P2
2022/03/04 00:00:22;;;;;;;;;59.50;45.75;;;;;16.17;56.38;101323.06;5081252;27;62119;-75
2022/03/04 00:02:48;;;;;;;;;48.25;40.25;;;;;16.18;56.36;101327.53;5080343;27;62148;-75
2022/03/04 00:05:13;;;;;;;;;61.75;45.25;;;;;16.20;56.30;101320.53;5079225;28;62236;-75
2022/03/04 00:07:38;;;;;;;;;60.50;45.50;;;;;16.21;56.54;101324.94;5080158;27;61754;-75
2022/03/04 00:10:04;;;;;;;;;56.75;46.00;;;;;16.23;56.67;101326.78;5080379;27;61805;-75
2022/03/04 00:12:30;;;;;;;;;63.00;48.00;;;;;16.23;56.37;101315.31;5080553;27;62037;-75
2022/03/04 00:14:56;;;;;;;;;61.50;46.75;;;;;16.21;56.63;101324.94;5080656;27;61913;-75
2022/03/04 00:17:21;;;;;;;;;69.25;49.75;;;;;16.14;56.63;101327.41;5079642;27;61969;-75
2022/03/04 00:19:47;;;;;;;;;55.75;46.00;;;;;16.12;57.04;101323.81;5081278;27;62121;-75
2022/03/04 00:22:14;;;;;;;;;59.25;45.50;;;;;16.15;56.98;101323.94;5080423;27;61781;-75
2022/03/04 00:24:40;;;;;;;;;62.25;46.00;;;;;16.12;57.12;101315.88;5081505;27;61789;-75
2022/03/04 00:27:05;;;;;;;;;58.00;47.00;;;;;16.14;57.11;101321.22;5079906;27;61853;-75
2022/03/04 00:29:31;;;;;;;;;62.00;44.00;;;;;16.14;57.31;101316.81;5080874;27;61938;-75
2022/03/04 00:31:56;;;;;;;;;58.75;44.50;;;;;16.14;56.81;101310.63;5081160;27;62035;-75
2022/03/04 00:34:21;;;;;;;;;59.75;48.50;;;;;16.15;57.22;101315.06;5080742;27;62210;-75
2022/03/04 00:36:49;;;;;;;;;57.50;44.75;;;;;16.19;57.17;101321.34;5079132;28;63720;-75
2022/03/04 00:39:15;;;;;;;;;57.50;43.00;;;;;16.19;57.14;101322.25;5076970;28;62042;-75
2022/03/04 00:41:41;;;;;;;;;61.75;45.00;;;;;16.24;56.87;101317.09;5080995;27;61799;-75
2022/03/04 00:44:06;;;;;;;;;56.75;46.50;;;;;16.21;57.05;101317.91;5088150;27;61846;-74
2022/03/04 00:46:32;;;;;;;;;53.75;43.50;;;;;16.25;57.05;101311.84;5079522;27;61865;-75
2022/03/04 00:48:57;;;;;;;;;51.75;43.25;;;;;16.21;57.18;101312.59;5080732;27;61973;-75
2022/03/04 00:51:23;;;;;;;;;62.00;47.50;;;;;16.21;56.98;101314.34;5080825;27;61903;-75
2022/03/04 00:53:49;;;;;;;;;61.25;46.25;;;;;16.15;57.37;101312.41;5081205;27;62104;-75
2022/03/04 00:56:14;;;;;;;;;60.25;47.25;;;;;16.11;57.38;101322.03;5079654;27;61897;-75
2022/03/04 00:58:40;;;;;;;;;61.25;49.50;;;;;16.05;57.56;101315.66;5077053;28;61943;-75
2022/03/04 01:01:07;;;;;;;;;64.50;50.00;;;;;15.98;57.99;101321.59;5079542;28;62578;-75
2022/03/04 01:03:34;;;;;;;;;63.00;44.50;;;;;15.85;58.07;101318.59;5095992;27;62023;-75
2022/03/04 01:06:00;;;;;;;;;61.00;44.25;;;;;15.87;57.79;101321.25;5076191;28;63799;-74
2022/03/04 01:08:26;;;;;;;;;53.75;38.50;;;;;15.92;57.75;101324.97;5079000;27;61918;-74
2022/03/04 01:10:52;;;;;;;;;52.25;42.25;;;;;15.99;57.63;101326.06;5080083;27;61897;-75
2022/03/04 01:13:17;;;;;;;;;39.50;36.50;;;;;15.97;57.50;101325.09;5077764;27;61762;-75
2022/03/04 01:15:44;;;;;;;;;47.25;39.75;;;;;15.90;57.68;101327.56;5079473;28;62060;-75
2022/03/04 01:18:10;;;;;;;;;54.00;38.75;;;;;15.82;57.60;101321.13;5078708;28;62023;-75
2022/03/04 01:20:35;;;;;;;;;56.50;41.75;;;;;15.85;57.63;101320.31;5087337;27;61755;-75
2022/03/04 01:23:01;;;;;;;;;46.00;39.00;;;;;15.89;57.67;101325.75;5076881;28;61855;-75
2022/03/04 01:25:27;;;;;;;;;51.75;37.50;;;;;15.92;57.40;101324.97;5079216;27;63168;-75
2022/03/04 01:27:52;;;;;;;;;52.00;40.50;;;;;15.96;57.30;101324.22;5078519;28;61851;-75
2022/03/04 01:30:18;;;;;;;;;59.00;45.00;;;;;15.95;57.10;101330.34;5079023;27;61918;-75
2022/03/04 01:32:46;;;;;;;;;44.25;39.50;;;;;15.97;57.28;101328.66;5081031;27;62097;-75
2022/03/04 01:35:13;;;;;;;;;52.25;42.50;;;;;15.95;57.22;101317.09;5081904;28;63807;-75
2022/03/04 01:37:39;;;;;;;;;45.00;39.00;;;;;15.97;57.29;101330.41;5083405;27;61817;-75
2022/03/04 01:40:07;;;;;;;;;46.00;38.00;;;;;15.99;57.20;101326.94;5083689;27;62024;-74
2022/03/04 01:42:33;;;;;;;;;42.75;39.00;;;;;15.98;57.25;101325.16;5082379;28;62084;-75
2022/03/04 01:44:58;;;;;;;;;47.50;38.00;;;;;15.97;57.14;101328.66;5082486;27;62799;-75
2022/03/04 01:47:24;;;;;;;;;64.25;47.00;;;;;15.92;57.46;101322.31;5083362;27;62753;-75
2022/03/04 01:49:50;;;;;;;;;51.75;40.25;;;;;15.84;57.57;101316.78;5083231;27;62752;-75
2022/03/04 01:52:17;;;;;;;;;53.50;43.50;;;;;15.82;57.81;101320.22;5080989;28;62141;-75
2022/03/04 01:54:43;;;;;;;;;61.25;43.00;;;;;15.79;57.85;101321.03;5088547;27;63983;-75
2022/03/04 01:57:08;;;;;;;;;55.50;41.75;;;;;15.78;57.82;101313.94;5081125;28;62032;-75
2022/03/04 01:59:34;;;;;;;;;50.00;42.00;;;;;15.83;57.63;101309.69;5081605;28;62043;-75
2022/03/04 02:01:59;;;;;;;;;55.50;43.25;;;;;15.86;57.86;101298.31;5082333;27;61877;-75
2022/03/04 02:04:25;;;;;;;;;58.00;42.00;;;;;15.85;57.43;101300.06;5082330;27;62899;-75
2022/03/04 02:06:51;;;;;;;;;57.00;45.50;;;;;15.87;57.36;101294.78;5082743;27;62021;-75
2022/03/04 02:09:17;;;;;;;;;56.00;44.50;;;;;15.85;57.45;101302.69;5090585;27;62077;-75
2022/03/04 02:11:44;;;;;;;;;53.75;43.00;;;;;15.86;57.57;101308.88;5082015;27;62330;-75
2022/03/04 02:14:13;;;;;;;;;50.25;39.25;;;;;15.83;57.56;101303.47;5082640;27;62871;-75
2022/03/04 02:16:45;;;;;;;;;54.75;41.50;;;;;15.76;57.57;101306.78;5082888;27;61948;-75
2022/03/04 02:19:10;;;;;;;;;46.00;38.75;;;;;15.57;57.98;101306.16;5082711;27;62133;-75
2022/03/04 02:21:40;;;;;;;;;57.50;37.75;;;;;15.48;58.18;101301.47;5081848;28;61783;-75
2022/03/04 02:24:06;;;;;;;;;46.00;38.75;;;;;15.46;58.18;101303.16;5079846;28;63196;-75
2022/03/04 02:26:31;;;;;;;;;48.00;39.50;;;;;15.36;58.27;101303.75;5081396;28;61997;-75
2022/03/04 02:28:57;;;;;;;;;52.75;40.75;;;;;15.32;58.27;101304.47;5082526;27;61988;-75
2022/03/04 02:31:22;;;;;;;;;56.75;43.00;;;;;15.19;58.74;101302.25;5081791;28;62276;-75
2022/03/04 02:33:48;;;;;;;;;40.00;34.50;;;;;15.07;59.20;101302.75;5082000;27;62272;-75
2022/03/04 02:36:15;;;;;;;;;49.50;42.00;;;;;14.99;59.38;101291.88;5081363;28;61739;-75
2022/03/04 02:38:40;;;;;;;;;47.25;37.50;;;;;14.93;59.50;101300.53;5082812;27;61764;-75
2022/03/04 02:41:06;;;;;;;;;42.50;37.25;;;;;14.88;59.67;101301.19;5089778;27;62229;-75
2022/03/04 02:43:32;;;;;;;;;53.25;41.00;;;;;14.84;59.69;101308.13;5081812;27;61948;-75
2022/03/04 02:45:58;;;;;;;;;59.00;42.50;;;;;14.79;59.99;101307.06;5082359;27;61982;-75
2022/03/04 02:48:23;;;;;;;;;52.75;40.00;;;;;14.82;59.68;101301.88;5081024;28;61925;-75
2022/03/04 02:50:49;;;;;;;;;52.00;41.50;;;;;14.74;60.23;101303.38;5082908;27;61833;-75
2022/03/04 02:53:14;;;;;;;;;63.00;44.25;;;;;14.69;60.40;101310.22;5081553;27;62573;-75
2022/03/04 02:55:40;;;;;;;;;56.00;45.75;;;;;14.65;60.16;101310.94;5081170;28;62034;-75
2022/03/04 02:58:05;;;;;;;;;56.50;44.25;;;;;14.60;60.67;101316.06;5079432;27;62186;-75
2022/03/04 03:00:31;;;;;;;;;53.50;43.75;;;;;14.56;60.54;101314.16;5082807;27;61994;-75
2022/03/04 03:02:57;;;;;;;;;56.75;42.50;;;;;14.63;60.25;101315.28;5081490;27;62895;-75
2022/03/04 03:05:23;;;;;;;;;64.50;47.50;;;;;14.66;60.40;101316.28;5082296;27;61966;-75
2022/03/04 03:07:49;;;;;;;;;51.50;40.75;;;;;14.71;60.29;101313.81;5082247;27;61765;-75
2022/03/04 03:10:14;;;;;;;;;52.75;42.00;;;;;14.71;60.29;101308.53;5082039;28;61906;-75
2022/03/04 03:12:42;;;;;;;;;58.75;42.75;;;;;14.66;60.68;101307.47;5081886;27;61835;-75
2022/03/04 03:15:09;;;;;;;;;60.00;44.25;;;;;14.58;60.82;101314.22;5079189;27;61826;-75
2022/03/04 03:17:36;;;;;;;;;55.25;42.75;;;;;14.56;60.78;101315.91;5081977;27;61958;-75
2022/03/04 03:20:04;;;;;;;;;58.50;41.50;;;;;14.56;60.83;101315.91;5082400;27;61905;-75
2022/03/04 03:22:29;;;;;;;;;69.25;47.00;;;;;14.51;61.20;101313.97;5077443;28;63614;-75
2022/03/04 03:24:54;;;;;;;;;54.50;42.75;;;;;14.53;61.03;101311.38;5089278;27;61921;-75
2022/03/04 03:27:20;;;;;;;;;65.75;48.25;;;;;14.53;61.29;101316.66;5081782;27;62653;-75
2022/03/04 03:29:46;;;;;;;;;57.75;44.00;;;;;14.55;60.62;101311.44;5081928;27;61996;-75
2022/03/04 03:32:12;;;;;;;;;64.75;46.00;;;;;14.55;61.08;101311.44;5079608;28;63941;-75
2022/03/04 03:34:38;;;;;;;;;48.00;40.75;;;;;14.51;61.23;101315.72;5089150;27;61997;-75
2022/03/04 03:37:04;;;;;;;;;57.00;44.50;;;;;14.43;61.69;101315.41;5080597;28;62262;-75
2022/03/04 03:39:30;;;;;;;;;61.00;43.25;;;;;14.43;61.66;101322.44;5079171;28;61919;-75
2022/03/04 03:41:55;;;;;;;;;56.75;43.75;;;;;14.43;61.17;101320.69;5081483;27;62706;-75
2022/03/04 03:44:21;;;;;;;;;55.25;45.00;;;;;14.40;61.55;101327.63;5081346;27;62149;-75
2022/03/04 03:46:46;;;;;;;;;56.50;45.50;;;;;14.37;61.87;101322.22;5081387;27;62024;-75
2022/03/04 03:49:12;;;;;;;;;58.75;43.25;;;;;14.37;62.04;101323.09;5081473;27;62133;-75
2022/03/04 03:51:38;;;;;;;;;63.50;49.75;;;;;14.35;61.80;101319.50;5080781;27;61857;-74
2022/03/04 03:54:03;;;;;;;;;68.00;49.25;;;;;14.38;61.63;101321.38;5081195;27;61910;-75
2022/03/04 03:56:29;;;;;;;;;55.00;43.00;;;;;14.39;61.58;101321.41;5078317;28;61831;-75
2022/03/04 03:58:54;;;;;;;;;58.75;45.00;;;;;14.44;61.37;101326.88;5081919;27;61766;-74
2022/03/04 04:01:20;;;;;;;;;55.00;44.75;;;;;14.48;61.54;101326.13;5079374;28;64036;-75
2022/03/04 04:03:45;;;;;;;;;43.00;38.50;;;;;14.55;60.92;101329.94;5081063;27;61932;-75
2022/03/04 04:06:11;;;;;;;;;59.50;46.25;;;;;14.56;61.17;101329.13;5078499;28;61881;-75
2022/03/04 04:08:36;;;;;;;;;59.00;42.75;;;;;14.55;61.52;101328.22;5081223;27;61985;-75
2022/03/04 04:11:03;;;;;;;;;55.00;44.25;;;;;14.60;61.22;101331.03;5080134;27;61889;-75
2022/03/04 04:13:28;;;;;;;;;62.00;46.75;;;;;14.61;61.09;101330.16;5078636;27;62630;-75
2022/03/04 04:15:53;;;;;;;;;59.75;46.50;;;;;14.59;61.29;101324.84;5088333;27;61968;-75
2022/03/04 04:18:19;;;;;;;;;60.00;45.50;;;;;14.60;61.10;101331.03;5080492;27;61994;-75
2022/03/04 04:20:44;;;;;;;;;61.25;49.25;;;;;14.59;61.06;101321.28;5080373;28;61994;-75
2022/03/04 04:23:10;;;;;;;;;59.00;47.50;;;;;14.64;60.61;101319.72;5080886;27;62017;-75
2022/03/04 04:25:35;;;;;;;;;61.50;46.75;;;;;14.63;60.90;101328.47;5079150;27;61895;-75
2022/03/04 04:28:01;;;;;;;;;63.25;49.25;;;;;14.61;61.23;101319.59;5080761;27;61699;-75
2022/03/04 04:30:26;;;;;;;;;56.00;44.75;;;;;14.62;61.00;101322.31;5077821;28;63638;-75
2022/03/04 04:32:52;;;;;;;;;58.00;41.00;;;;;14.67;60.64;101326.00;5080113;27;61941;-75
2022/03/04 04:35:17;;;;;;;;;61.25;46.25;;;;;14.70;60.93;101315.56;5080756;27;61673;-75
2022/03/04 04:37:42;;;;;;;;;58.25;42.75;;;;;14.75;60.51;101326.28;5080615;27;61851;-75
2022/03/04 04:40:09;;;;;;;;;68.50;50.25;;;;;14.84;60.50;101328.38;5080003;27;61920;-75
2022/03/04 04:42:35;;;;;;;;;66.50;47.50;;;;;14.89;60.40;101338.28;5080666;27;61770;-75
2022/03/04 04:45:00;;;;;;;;;60.75;47.75;;;;;14.95;60.30;101334.03;5080334;27;61920;-75
2022/03/04 04:47:26;;;;;;;;;57.50;42.50;;;;;14.97;59.94;101330.59;5080604;27;61988;-75
2022/03/04 04:49:51;;;;;;;;;64.25;47.50;;;;;15.01;59.89;101339.53;5080023;27;62054;-75
2022/03/04 04:52:17;;;;;;;;;59.00;45.00;;;;;15.03;59.87;101340.50;5080521;27;62211;-75
2022/03/04 04:54:42;;;;;;;;;57.75;43.50;;;;;15.08;59.98;101342.47;5080399;27;61914;-75
2022/03/04 04:57:08;;;;;;;;;59.25;45.75;;;;;15.09;59.77;101341.59;5080444;27;61817;-75
2022/03/04 04:59:34;;;;;;;;;64.75;47.00;;;;;15.13;59.79;101335.59;5086684;27;63858;-75
2022/03/04 05:01:59;;;;;;;;;70.00;50.75;;;;;15.17;59.69;101336.59;5087046;27;62184;-75
2022/03/04 05:04:25;;;;;;;;;60.75;46.00;;;;;15.20;59.67;101333.16;5078895;28;62059;-75
2022/03/04 05:06:51;;;;;;;;;57.25;47.75;;;;;15.22;59.65;101334.09;5080507;27;62948;-75
2022/03/04 05:09:16;;;;;;;;;62.00;44.75;;;;;15.23;59.89;101347.38;5082526;27;63021;-75
2022/03/04 05:11:42;;;;;;;;;64.50;49.00;;;;;15.24;59.84;101343.88;5083004;27;62216;-75
2022/03/04 05:14:08;;;;;;;;;56.75;46.00;;;;;15.28;59.64;101344.91;5081010;28;62118;-75
2022/03/04 05:16:33;;;;;;;;;65.75;53.25;;;;;15.28;59.66;101342.25;5083346;27;61923;-75
2022/03/04 05:18:59;;;;;;;;;68.50;48.00;;;;;15.30;59.69;101346.75;5082183;27;63160;-75
2022/03/04 05:21:24;;;;;;;;;62.50;47.00;;;;;15.35;59.49;101357.47;5082970;27;61967;-75
2022/03/04 05:24:06;;;;;;;;;59.50;46.00;;;;;15.33;59.38;101354.75;5082928;28;62584;-75
2022/03/04 05:26:37;;;;;;;;;61.50;50.00;;;;;15.38;59.15;101354.94;5082608;27;61722;-75
2022/03/04 05:29:05;;;;;;;;;61.25;44.50;;;;;15.38;59.32;101348.72;5082372;27;62311;-75
2022/03/04 05:31:31;;;;;;;;;59.75;47.00;;;;;15.39;59.43;101356.72;5090554;27;62335;-75
2022/03/04 05:33:57;;;;;;;;;65.25;48.75;;;;;15.37;59.88;101354.88;5082899;27;61724;-75
2022/03/04 05:36:23;;;;;;;;;58.50;44.25;;;;;15.40;59.71;101360.28;5082355;28;62332;-75
2022/03/04 05:38:49;;;;;;;;;67.75;46.00;;;;;15.40;59.56;101361.16;5082652;27;62106;-75
2022/03/04 05:41:17;;;;;;;;;58.25;47.00;;;;;15.43;59.79;101361.28;5082025;28;61994;-75
2022/03/04 05:43:43;;;;;;;;;61.25;48.75;;;;;15.44;59.66;101359.53;5083313;27;62033;-75
2022/03/04 05:46:09;;;;;;;;;62.75;48.25;;;;;15.43;59.66;101356.00;5090214;27;62102;-75
2022/03/04 05:48:34;;;;;;;;;59.50;44.00;;;;;15.44;59.56;101356.88;5082514;27;62505;-75
2022/03/04 05:51:00;;;;;;;;;58.25;45.75;;;;;15.43;59.45;101356.00;5081837;28;62031;-75
2022/03/04 05:53:34;;;;;;;;;57.25;47.00;;;;;15.47;59.41;101363.19;5083540;27;61927;-75
2022/03/04 05:56:02;;;;;;;;;65.50;48.50;;;;;15.50;59.50;101357.09;5083141;27;61904;-75
2022/03/04 05:58:28;;;;;;;;;57.75;46.50;;;;;15.48;59.48;101351.75;5083061;28;61716;-75
2022/03/04 06:00:53;;;;;;;;;67.50;47.75;;;;;15.48;59.71;101356.13;5083039;27;61783;-75
2022/03/04 06:03:19;;;;;;;;;64.50;45.50;;;;;15.44;59.88;101357.78;5081681;28;61774;-75
2022/03/04 06:05:45;;;;;;;;;65.50;50.00;;;;;15.39;59.67;101356.72;5083500;27;62170;-75
2022/03/04 06:08:10;;;;;;;;;67.25;48.00;;;;;15.40;60.14;101360.28;5080761;27;62000;-75
2022/03/04 06:10:36;;;;;;;;;64.50;46.75;;;;;15.43;60.04;101363.94;5083284;27;61913;-74
2022/03/04 06:13:01;;;;;;;;;63.50;45.00;;;;;15.45;59.82;101369.28;5079909;28;62021;-75
2022/03/04 06:15:27;;;;;;;;;60.00;46.25;;;;;15.45;59.67;101378.09;5082412;27;61981;-76
2022/03/04 06:17:52;;;;;;;;;61.75;47.00;;;;;15.47;59.78;101370.22;5080948;27;62181;-75
2022/03/04 06:20:18;;;;;;;;;63.50;46.50;;;;;15.51;59.48;101372.09;5080971;28;62442;-76
2022/03/04 06:22:44;;;;;;;;;58.75;45.75;;;;;15.50;59.82;101375.63;5098768;27;62350;-76
2022/03/04 06:25:11;;;;;;;;;70.25;46.50;;;;;15.51;59.92;101382.69;5083369;27;62147;-76
2022/03/04 06:27:38;;;;;;;;;73.00;54.50;;;;;15.41;60.28;101386.78;5081961;28;64500;-76
2022/03/04 06:30:04;;;;;;;;;63.25;47.25;;;;;15.31;60.41;101385.56;5083420;27;62174;-76
2022/03/04 06:32:30;;;;;;;;;64.75;48.25;;;;;15.24;60.58;101380.03;5082547;27;61991;-76
2022/03/04 06:34:57;;;;;;;;;65.00;49.25;;;;;15.04;60.86;101384.59;5084287;27;61986;-76
2022/03/04 06:37:23;;;;;;;;;65.50;52.00;;;;;14.94;61.32;101391.31;5081875;27;64134;-76
2022/03/04 06:39:48;;;;;;;;;60.50;48.25;;;;;14.92;60.80;101396.53;5084025;27;61819;-75
2022/03/04 06:42:14;;;;;;;;;71.25;49.50;;;;;14.99;60.66;101399.38;5095448;27;62015;-76
2022/03/04 06:44:39;;;;;;;;;62.50;48.25;;;;;15.04;60.86;101409.31;5083068;27;61824;-76
2022/03/04 06:47:05;;;;;;;;;64.25;50.75;;;;;15.07;60.67;101413.78;5081862;27;61862;-76
2022/03/04 06:49:30;;;;;;;;;58.25;49.00;;;;;15.12;60.62;101417.50;5082167;27;62045;-76
2022/03/04 06:51:56;;;;;;;;;64.50;50.50;;;;;15.19;60.21;101424.81;5082726;28;61830;-77
2022/03/04 06:54:21;;;;;;;;;71.00;51.00;;;;;15.26;60.19;101420.66;5083146;28;62222;-75
2022/03/04 06:56:47;;;;;;;;;68.50;51.25;;;;;15.29;60.14;101429.56;5082258;28;62115;-75
2022/03/04 06:59:12;;;;;;;;;61.25;48.00;;;;;15.27;60.23;101433.91;5082970;27;62241;-77
2022/03/04 07:01:38;;;;;;;;;66.25;49.25;;;;;15.22;60.41;101432.84;5082317;28;61924;-77
2022/03/04 07:04:03;;;;;;;;;73.00;50.50;;;;;15.21;60.48;101436.34;5083747;27;61834;-77
2022/03/04 07:06:29;;;;;;;;;59.75;48.25;;;;;15.26;60.44;101433.88;5081090;27;63398;-76
2022/03/04 07:08:54;;;;;;;;;62.00;48.50;;;;;15.25;60.11;101442.63;5083459;27;62111;-76
2022/03/04 07:11:19;;;;;;;;;69.75;46.50;;;;;15.08;60.82;101442.94;5082768;27;61881;-77
2022/03/04 07:13:45;;;;;;;;;65.50;50.00;;;;;15.02;61.08;101444.47;5082669;28;61911;-77
2022/03/04 07:16:10;;;;;;;;;67.00;51.75;;;;;14.81;61.85;101450.75;5080802;28;64791;-76
2022/03/04 07:18:36;;;;;;;;;62.75;46.75;;;;;14.83;61.59;101448.16;5089558;27;62173;-77
2022/03/04 07:21:02;;;;;;;;;63.00;47.50;;;;;14.78;61.73;101455.00;5083438;28;61988;-75
2022/03/04 07:23:27;;;;;;;;;68.00;50.75;;;;;14.80;61.20;101458.59;5098798;27;61855;-75
2022/03/04 07:25:53;;;;;;;;;63.00;49.50;;;;;14.87;61.29;101458.91;5080934;28;63916;-75
2022/03/04 07:28:18;;;;;;;;;69.25;51.25;;;;;14.98;61.03;101458.41;5077959;27;62174;-75
2022/03/04 07:30:44;;;;;;;;;61.00;47.50;;;;;15.04;61.26;101461.25;5071121;28;61712;-75
2022/03/04 07:33:10;;;;;;;;;61.50;48.50;;;;;15.12;60.35;101455.44;5082204;27;62576;-75
2022/03/04 07:35:39;;;;;;;;;61.25;47.50;;;;;15.20;60.42;101458.34;5081515;27;62951;-75
2022/03/04 07:38:04;;;;;;;;;66.75;51.00;;;;;15.23;60.53;101457.53;5082542;27;61997;-79
2022/03/04 07:40:30;;;;;;;;;65.50;48.75;;;;;15.36;59.89;101469.47;5082732;27;61674;-80
2022/03/04 07:42:56;;;;;;;;;69.00;49.75;;;;;15.43;60.12;101464.47;5092396;27;61699;-76
2022/03/04 07:45:22;;;;;;;;;64.00;49.25;;;;;15.45;59.54;101467.19;5077039;28;61941;-77
2022/03/04 07:47:48;;;;;;;;;66.75;51.50;;;;;15.42;60.21;101465.28;5089260;27;61901;-76
2022/03/04 07:50:15;;;;;;;;;65.75;52.00;;;;;15.51;59.39;101475.28;5082251;27;61980;-76
2022/03/04 07:52:42;;;;;;;;;76.25;53.75;;;;;15.47;59.88;101478.72;5082427;27;61797;-75
2022/03/04 07:55:09;;;;;;;;;57.75;48.25;;;;;15.49;59.70;101477.03;5081998;28;62119;-74
2022/03/04 07:57:37;;;;;;;;;64.75;48.25;;;;;15.52;59.69;101482.41;5079121;28;62098;-75
2022/03/04 08:00:05;;;;;;;;;64.50;50.50;;;;;15.61;59.56;101480.06;5092692;27;61924;-75
2022/03/04 08:02:31;;;;;;;;;68.50;51.75;;;;;15.58;59.51;101474.69;5082653;28;62030;-75
2022/03/04 08:04:56;;;;;;;;;67.75;51.00;;;;;15.61;59.83;101476.53;5080060;28;64405;-75
2022/03/04 08:07:22;;;;;;;;;70.00;51.00;;;;;15.65;59.70;101479.34;5078734;27;62214;-75
2022/03/04 08:09:47;;;;;;;;;64.25;48.25;;;;;15.69;59.61;101472.41;5077286;28;62163;-75
2022/03/04 08:12:13;;;;;;;;;67.00;50.75;;;;;15.74;59.38;101482.34;5063267;28;62115;-75
2022/03/04 08:14:42;;;;;;;;;69.75;54.50;;;;;15.87;59.41;101485.41;5061418;28;61925;-75
2022/03/04 08:17:07;;;;;;;;;65.00;50.75;;;;;15.99;58.93;101480.53;5081003;28;61779;-76
2022/03/04 08:19:33;;;;;;;;;72.50;55.00;;;;;16.08;58.96;101485.22;5087452;27;61830;-76
2022/03/04 08:22:00;;;;;;;;;64.00;50.75;;;;;16.10;58.77;101487.06;5075858;27;61752;-75
2022/03/04 08:24:25;;;;;;;;;68.50;52.00;;;;;16.09;58.67;101484.41;5081412;27;61895;-75
2022/03/04 08:26:51;;;;;;;;;62.50;51.00;;;;;16.19;58.70;101486.47;5079711;28;61988;-80
2022/03/04 08:29:16;;;;;;;;;72.50;55.50;;;;;16.17;58.96;101495.22;5080473;27;61821;-79
2022/03/04 08:31:41;;;;;;;;;71.00;51.00;;;;;16.26;58.46;101499.09;5082029;27;62024;-78
2022/03/04 08:34:07;;;;;;;;;75.50;58.00;;;;;16.29;58.44;101492.97;5080372;27;63079;-78
2022/03/04 08:36:32;;;;;;;;;69.00;52.00;;;;;16.42;58.26;101496.94;5080449;27;62156;-78
2022/03/04 08:39:03;;;;;;;;;65.25;53.25;;;;;16.52;58.09;101493.72;5063965;27;62043;-78
2022/03/04 08:41:30;;;;;;;;;71.25;52.50;;;;;16.58;57.77;101501.84;5085032;27;61893;-78
2022/03/04 08:43:55;;;;;;;;;73.75;53.00;;;;;16.62;57.78;101501.09;5103160;27;65129;-77
2022/03/04 08:46:21;;;;;;;;;69.25;54.75;;;;;16.73;57.54;101498.78;5087708;27;62132;-78
2022/03/04 08:48:51;;;;;;;;;73.50;54.50;;;;;16.83;57.30;101502.66;5088097;27;61846;-78
2022/03/04 08:51:17;;;;;;;;;66.25;52.50;;;;;16.96;57.35;101499.50;5082091;28;62280;-78
2022/03/04 08:53:43;;;;;;;;;71.25;54.25;;;;;17.10;57.15;101500.81;5102579;27;63818;-78
2022/03/04 08:56:08;;;;;;;;;71.50;54.75;;;;;17.23;56.80;101501.19;5087138;27;61804;-76
2022/03/04 08:58:34;;;;;;;;;64.25;49.75;;;;;17.36;56.67;101498.00;5088036;27;62225;-75
2022/03/04 09:01:00;;;;;;;;;71.00;55.25;;;;;17.47;56.16;101504.50;5087327;28;61999;-75
2022/03/04 09:03:26;;;;;;;;;71.00;52.75;;;;;17.46;55.59;101499.16;5075566;28;63790;-75
2022/03/04 09:05:51;;;;;;;;;71.25;53.00;;;;;17.45;55.50;101502.69;5086187;28;62174;-75
2022/03/04 09:08:17;;;;;;;;;72.25;54.75;;;;;17.45;55.62;101503.56;5085596;28;61814;-76
2022/03/04 09:10:43;;;;;;;;;73.75;54.50;;;;;17.55;55.56;101502.97;5086096;28;62355;-75
2022/03/04 09:13:08;;;;;;;;;75.00;54.75;;;;;17.58;55.37;101500.38;5093282;27;63124;-75
2022/03/04 09:15:34;;;;;;;;;70.50;51.00;;;;;17.62;55.28;101509.34;5085713;28;61758;-75
2022/03/04 09:17:59;;;;;;;;;71.75;55.25;;;;;17.63;55.54;101505.84;5086355;28;62083;-75
2022/03/04 09:20:25;;;;;;;;;74.25;53.00;;;;;17.66;55.20;101508.56;5087453;27;62120;-75
2022/03/04 09:22:51;;;;;;;;;74.25;53.75;;;;;17.66;55.25;101503.25;5066823;27;61914;-76
2022/03/04 09:25:16;;;;;;;;;70.50;53.25;;;;;17.75;55.23;101508.81;5067089;28;62116;-75
2022/03/04 09:27:43;;;;;;;;;73.50;54.75;;;;;17.82;55.14;101506.31;5071898;28;62075;-75
2022/03/04 09:30:14;;;;;;;;;69.75;52.25;;;;;17.94;55.11;101502.25;5088543;27;61940;-75
2022/03/04 09:32:39;;;;;;;;;76.25;58.00;;;;;18.00;54.52;101503.28;5081984;28;63557;-75
2022/03/04 09:35:05;;;;;;;;;73.50;54.50;;;;;18.07;54.56;101498.16;5086133;27;61894;-75
2022/03/04 09:37:31;;;;;;;;;75.00;54.00;;;;;18.14;54.33;101504.53;5083091;27;62183;-75
2022/03/04 09:39:57;;;;;;;;;66.25;51.25;;;;;18.19;54.22;101498.47;5084503;27;62368;-75
2022/03/04 09:42:23;;;;;;;;;77.50;52.50;;;;;18.15;53.96;101506.34;5093529;27;63971;-75
2022/03/04 09:44:49;;;;;;;;;71.00;52.25;;;;;18.12;53.99;101500.94;5083113;27;62290;-76
2022/03/04 09:47:20;;;;;;;;;72.75;55.50;;;;;18.17;54.06;101499.31;5082885;27;61949;-75
2022/03/04 09:49:46;;;;;;;;;72.50;54.50;;;;;18.21;53.65;101508.22;5080791;27;61951;-75
2022/03/04 09:52:12;;;;;;;;;76.50;55.50;;;;;18.23;53.84;101512.75;5083489;27;62319;-80
2022/03/04 09:54:38;;;;;;;;;75.00;56.50;;;;;18.16;53.67;101506.34;5076430;27;61733;-80
2022/03/04 09:57:05;;;;;;;;;70.00;51.00;;;;;18.22;53.63;101510.03;5080229;28;61920;-75
2022/03/04 09:59:30;;;;;;;;;75.75;54.00;;;;;18.20;53.54;101504.69;5081078;28;61894;-76
2022/03/04 10:02:00;;;;;;;;;73.25;54.00;;;;;18.18;53.14;101512.59;5078693;28;63308;-75
2022/03/04 10:04:27;;;;;;;;;72.75;52.75;;;;;18.17;53.58;101508.16;5081301;27;61680;-75
2022/03/04 10:06:54;;;;;;;;;77.25;54.75;;;;;18.11;53.50;101505.34;5079585;28;62365;-74
2022/03/04 10:09:46;;;;;;;;;67.75;53.75;;;;;18.08;53.05;101501.69;5080421;28;61891;-75
2022/03/04 10:12:16;;;;;;;;;68.75;53.75;;;;;18.12;53.22;101507.16;5080096;28;62972;-75
2022/03/04 10:15:06;;;;;;;;;72.25;51.25;;;;;18.27;53.59;101505.72;5075999;27;62185;-76
2022/03/04 10:17:34;;;;;;;;;69.50;55.00;;;;;18.32;53.16;101506.75;5080900;28;61901;-76
2022/03/04 10:20:03;;;;;;;;;69.50;56.00;;;;;18.30;53.15;101508.47;5081693;28;61976;-75
2022/03/04 10:22:45;;;;;;;;;76.75;54.75;;;;;18.38;53.25;101515.78;5081174;28;63281;-75
2022/03/04 10:25:25;;;;;;;;;75.50;53.00;;;;;18.44;52.66;101515.00;5079439;28;62162;-75
2022/03/04 10:27:52;;;;;;;;;63.50;48.00;;;;;18.50;52.25;101506.28;5082081;27;62079;-75
2022/03/04 10:30:30;;;;;;;;;61.50;47.25;;;;;18.36;52.14;101514.84;5081044;28;62062;-75
2022/03/04 10:33:10;;;;;;;;;74.75;55.50;;;;;18.32;52.22;101514.72;5077378;28;63793;-75
2022/03/04 10:35:37;;;;;;;;;78.50;56.75;;;;;18.32;52.29;101514.72;5080433;28;61862;-75
2022/03/04 10:38:04;;;;;;;;;74.50;52.00;;;;;18.24;52.90;101516.28;5080679;28;61951;-75
2022/03/04 10:40:42;;;;;;;;;68.25;51.25;;;;;18.34;52.74;101518.31;5074150;28;61896;-75
2022/03/04 10:43:09;;;;;;;;;67.00;51.75;;;;;18.29;52.72;101517.28;5089247;27;63901;-75
2022/03/04 10:45:40;;;;;;;;;69.00;49.00;;;;;18.28;52.39;101510.19;5081822;27;62125;-75
2022/03/04 10:48:09;;;;;;;;;62.25;47.50;;;;;18.38;52.17;101512.19;5081499;27;62359;-75
2022/03/04 10:50:39;;;;;;;;;62.00;49.25;;;;;18.54;52.20;101519.69;5079229;28;62218;-75
2022/03/04 10:53:18;;;;;;;;;60.25;48.75;;;;;18.55;51.95;101521.50;5079056;27;62320;-80
2022/03/04 10:56:00;;;;;;;;;69.75;53.25;;;;;18.68;51.93;101516.44;5081844;28;63148;-74
2022/03/04 10:58:39;;;;;;;;;57.25;45.00;;;;;18.88;51.68;101512.50;5079599;28;62067;-75
2022/03/04 11:01:11;;;;;;;;;62.25;49.50;;;;;18.93;51.37;101516.16;5081004;27;62247;-76
2022/03/04 11:03:39;;;;;;;;;65.50;50.25;;;;;18.98;52.93;101513.59;5079038;27;64095;-77
2022/03/04 11:06:13;;;;;;;;;62.75;49.25;;;;;19.05;51.41;101517.31;5080542;27;63031;-74